sensor_id;sensor_type;location;lat;lon;timestamp;P1;durP1;ratioP1;P2;durP2;ratioP2
2049;SDS011;8478;49.208;8.806;2023-07-29T00:00:38;5.30;;;4.90;;
2049;SDS011;8478;49.208;8.806;2023-07-29T00:03:04;7.57;;;4.60;;
2049;SDS011;8478;49.208;8.806;2023-07-29T00:05:30;4.87;;;4.67;;
2049;SDS011;8478;49.208;8.806;2023-07-29T00:07:56;4.90;;;4.70;;
2049;SDS011;8478;49.208;8.806;2023-07-29T00:10:21;3.83;;;3.42;;
2049;SDS011;8478;49.208;8.806;2023-07-29T00:12:47;4.70;;;4.30;;
2049;SDS011;8478;49.208;8.806;2023-07-29T00:15:13;4.67;;;4.37;;
2049;SDS011;8478;49.208;8.806;2023-07-29T00:17:39;5.27;;;4.87;;
2049;SDS011;8478;49.208;8.806;2023-07-29T00:20:05;3.60;;;3.30;;
2049;SDS011;8478;49.208;8.806;2023-07-29T00:22:31;4.93;;;4.60;;
2049;SDS011;8478;49.208;8.806;2023-07-29T00:24:57;5.40;;;5.10;;
2049;SDS011;8478;49.208;8.806;2023-07-29T00:27:24;5.07;;;4.80;;
2049;SDS011;8478;49.208;8.806;2023-07-29T00:29:50;5.47;;;5.20;;
2049;SDS011;8478;49.208;8.806;2023-07-29T00:32:15;5.17;;;4.93;;
2049;SDS011;8478;49.208;8.806;2023-07-29T00:34:41;4.70;;;4.40;;
2049;SDS011;8478;49.208;8.806;2023-07-29T00:37:07;5.20;;;4.90;;
2049;SDS011;8478;49.208;8.806;2023-07-29T00:39:32;5.07;;;4.87;;
2049;SDS011;8478;49.208;8.806;2023-07-29T00:41:58;5.00;;;4.60;;
2049;SDS011;8478;49.208;8.806;2023-07-29T00:44:24;3.47;;;3.28;;
2049;SDS011;8478;49.208;8.806;2023-07-29T00:46:50;5.77;;;5.17;;
2049;SDS011;8478;49.208;8.806;2023-07-29T00:49:18;5.20;;;5.00;;
2049;SDS011;8478;49.208;8.806;2023-07-29T00:51:44;5.43;;;5.13;;
2049;SDS011;8478;49.208;8.806;2023-07-29T00:54:10;5.30;;;5.00;;
2049;SDS011;8478;49.208;8.806;2023-07-29T00:56:36;4.57;;;4.37;;
2049;SDS011;8478;49.208;8.806;2023-07-29T00:59:02;4.43;;;4.23;;
2049;SDS011;8478;49.208;8.806;2023-07-29T01:01:29;4.63;;;4.40;;
2049;SDS011;8478;49.208;8.806;2023-07-29T01:03:55;5.57;;;4.70;;
2049;SDS011;8478;49.208;8.806;2023-07-29T01:06:29;4.37;;;4.17;;
2049;SDS011;8478;49.208;8.806;2023-07-29T01:09:21;3.40;;;3.20;;
2049;SDS011;8478;49.208;8.806;2023-07-29T01:12:08;4.20;;;3.90;;
2049;SDS011;8478;49.208;8.806;2023-07-29T01:14:47;4.97;;;4.60;;
2049;SDS011;8478;49.208;8.806;2023-07-29T01:17:24;4.60;;;4.40;;
2049;SDS011;8478;49.208;8.806;2023-07-29T01:20:15;5.00;;;4.57;;
2049;SDS011;8478;49.208;8.806;2023-07-29T01:22:42;4.63;;;4.40;;
2049;SDS011;8478;49.208;8.806;2023-07-29T01:25:08;4.60;;;4.40;;
2049;SDS011;8478;49.208;8.806;2023-07-29T01:27:34;4.70;;;4.50;;
2049;SDS011;8478;49.208;8.806;2023-07-29T01:30:00;4.60;;;4.30;;
2049;SDS011;8478;49.208;8.806;2023-07-29T01:35:32;4.37;;;4.17;;
2049;SDS011;8478;49.208;8.806;2023-07-29T01:38:06;4.50;;;4.20;;
2049;SDS011;8478;49.208;8.806;2023-07-29T01:40:52;5.00;;;4.37;;
2049;SDS011;8478;49.208;8.806;2023-07-29T01:43:18;4.50;;;4.30;;
2049;SDS011;8478;49.208;8.806;2023-07-29T01:45:48;3.63;;;3.42;;
2049;SDS011;8478;49.208;8.806;2023-07-29T01:48:14;4.07;;;3.77;;
2049;SDS011;8478;49.208;8.806;2023-07-29T01:50:40;4.40;;;4.10;;
2049;SDS011;8478;49.208;8.806;2023-07-29T01:53:05;4.73;;;4.43;;
2049;SDS011;8478;49.208;8.806;2023-07-29T01:55:31;3.97;;;3.77;;
2049;SDS011;8478;49.208;8.806;2023-07-29T01:57:57;4.60;;;4.30;;
2049;SDS011;8478;49.208;8.806;2023-07-29T02:00:23;4.37;;;4.13;;
2049;SDS011;8478;49.208;8.806;2023-07-29T02:02:49;4.27;;;4.00;;
2049;SDS011;8478;49.208;8.806;2023-07-29T02:05:14;4.27;;;3.93;;
2049;SDS011;8478;49.208;8.806;2023-07-29T02:07:40;3.70;;;3.47;;
2049;SDS011;8478;49.208;8.806;2023-07-29T02:10:06;4.70;;;4.40;;
2049;SDS011;8478;49.208;8.806;2023-07-29T02:12:32;4.60;;;4.30;;
2049;SDS011;8478;49.208;8.806;2023-07-29T02:14:58;3.93;;;3.60;;
2049;SDS011;8478;49.208;8.806;2023-07-29T02:17:24;4.73;;;4.40;;
2049;SDS011;8478;49.208;8.806;2023-07-29T02:19:51;5.90;;;4.20;;
2049;SDS011;8478;49.208;8.806;2023-07-29T02:22:17;4.40;;;4.00;;
2049;SDS011;8478;49.208;8.806;2023-07-29T02:24:43;4.30;;;4.10;;
2049;SDS011;8478;49.208;8.806;2023-07-29T02:27:10;4.40;;;4.20;;
2049;SDS011;8478;49.208;8.806;2023-07-29T02:29:35;3.97;;;3.77;;
2049;SDS011;8478;49.208;8.806;2023-07-29T02:32:02;4.03;;;3.70;;
2049;SDS011;8478;49.208;8.806;2023-07-29T02:34:28;3.33;;;3.03;;
2049;SDS011;8478;49.208;8.806;2023-07-29T02:36:54;4.17;;;3.97;;
2049;SDS011;8478;49.208;8.806;2023-07-29T02:39:20;4.07;;;3.70;;
2049;SDS011;8478;49.208;8.806;2023-07-29T02:41:46;3.87;;;3.67;;
2049;SDS011;8478;49.208;8.806;2023-07-29T02:44:11;4.70;;;4.40;;
2049;SDS011;8478;49.208;8.806;2023-07-29T02:46:37;3.97;;;3.60;;
2049;SDS011;8478;49.208;8.806;2023-07-29T02:49:03;4.07;;;3.77;;
2049;SDS011;8478;49.208;8.806;2023-07-29T02:51:31;4.37;;;4.00;;
2049;SDS011;8478;49.208;8.806;2023-07-29T02:53:57;4.13;;;3.83;;
2049;SDS011;8478;49.208;8.806;2023-07-29T02:56:23;4.03;;;3.70;;
2049;SDS011;8478;49.208;8.806;2023-07-29T02:58:49;3.70;;;3.40;;
2049;SDS011;8478;49.208;8.806;2023-07-29T03:01:16;4.03;;;3.80;;
2049;SDS011;8478;49.208;8.806;2023-07-29T03:03:42;3.80;;;3.60;;
2049;SDS011;8478;49.208;8.806;2023-07-29T03:06:09;4.50;;;4.10;;
2049;SDS011;8478;49.208;8.806;2023-07-29T03:08:38;5.25;;;4.75;;
2049;SDS011;8478;49.208;8.806;2023-07-29T03:11:13;4.70;;;4.40;;
2049;SDS011;8478;49.208;8.806;2023-07-29T03:13:40;3.70;;;3.40;;
2049;SDS011;8478;49.208;8.806;2023-07-29T03:16:10;6.03;;;4.37;;
2049;SDS011;8478;49.208;8.806;2023-07-29T03:18:39;3.97;;;3.67;;
2049;SDS011;8478;49.208;8.806;2023-07-29T03:21:06;3.83;;;3.63;;
2049;SDS011;8478;49.208;8.806;2023-07-29T03:23:33;3.05;;;2.85;;
2049;SDS011;8478;49.208;8.806;2023-07-29T03:26:00;4.17;;;3.87;;
2049;SDS011;8478;49.208;8.806;2023-07-29T03:28:29;4.00;;;3.70;;
2049;SDS011;8478;49.208;8.806;2023-07-29T03:30:58;3.80;;;3.60;;
2049;SDS011;8478;49.208;8.806;2023-07-29T03:33:24;3.67;;;3.43;;
2049;SDS011;8478;49.208;8.806;2023-07-29T03:35:51;4.27;;;4.07;;
2049;SDS011;8478;49.208;8.806;2023-07-29T03:38:17;4.30;;;3.90;;
2049;SDS011;8478;49.208;8.806;2023-07-29T03:40:43;4.27;;;3.97;;
2049;SDS011;8478;49.208;8.806;2023-07-29T03:43:09;4.03;;;3.83;;
2049;SDS011;8478;49.208;8.806;2023-07-29T03:45:35;4.43;;;4.20;;
2049;SDS011;8478;49.208;8.806;2023-07-29T03:48:02;4.33;;;4.03;;
2049;SDS011;8478;49.208;8.806;2023-07-29T03:50:28;4.53;;;4.33;;
2049;SDS011;8478;49.208;8.806;2023-07-29T03:52:55;4.13;;;3.90;;
2049;SDS011;8478;49.208;8.806;2023-07-29T03:55:21;4.07;;;3.70;;
2049;SDS011;8478;49.208;8.806;2023-07-29T03:57:48;3.00;;;2.80;;
2049;SDS011;8478;49.208;8.806;2023-07-29T04:00:14;4.80;;;4.50;;
2049;SDS011;8478;49.208;8.806;2023-07-29T04:02:40;5.03;;;4.57;;
2049;SDS011;8478;49.208;8.806;2023-07-29T04:05:06;4.30;;;4.10;;
2049;SDS011;8478;49.208;8.806;2023-07-29T04:07:35;4.63;;;4.33;;
2049;SDS011;8478;49.208;8.806;2023-07-29T04:10:01;3.90;;;3.70;;
2049;SDS011;8478;49.208;8.806;2023-07-29T04:12:27;4.30;;;4.10;;
2049;SDS011;8478;49.208;8.806;2023-07-29T04:14:53;5.30;;;4.20;;
2049;SDS011;8478;49.208;8.806;2023-07-29T04:17:18;4.17;;;3.97;;
2049;SDS011;8478;49.208;8.806;2023-07-29T04:19:44;4.23;;;4.00;;
2049;SDS011;8478;49.208;8.806;2023-07-29T04:22:10;4.27;;;3.97;;
2049;SDS011;8478;49.208;8.806;2023-07-29T04:24:37;4.33;;;4.03;;
2049;SDS011;8478;49.208;8.806;2023-07-29T04:27:03;4.40;;;4.20;;
2049;SDS011;8478;49.208;8.806;2023-07-29T04:29:29;4.47;;;4.07;;
2049;SDS011;8478;49.208;8.806;2023-07-29T04:31:55;4.40;;;4.20;;
2049;SDS011;8478;49.208;8.806;2023-07-29T04:34:20;4.53;;;4.33;;
2049;SDS011;8478;49.208;8.806;2023-07-29T04:36:46;3.10;;;2.90;;
2049;SDS011;8478;49.208;8.806;2023-07-29T04:39:12;4.30;;;4.07;;
2049;SDS011;8478;49.208;8.806;2023-07-29T04:41:38;5.27;;;4.97;;
2049;SDS011;8478;49.208;8.806;2023-07-29T04:44:04;4.50;;;4.10;;
2049;SDS011;8478;49.208;8.806;2023-07-29T04:46:30;3.93;;;3.73;;
2049;SDS011;8478;49.208;8.806;2023-07-29T04:48:56;4.33;;;4.03;;
2049;SDS011;8478;49.208;8.806;2023-07-29T04:51:21;4.83;;;4.43;;
2049;SDS011;8478;49.208;8.806;2023-07-29T04:53:48;5.60;;;3.87;;
2049;SDS011;8478;49.208;8.806;2023-07-29T04:56:14;4.60;;;4.30;;
2049;SDS011;8478;49.208;8.806;2023-07-29T04:58:40;4.27;;;3.97;;
2049;SDS011;8478;49.208;8.806;2023-07-29T05:01:06;2.97;;;2.70;;
2049;SDS011;8478;49.208;8.806;2023-07-29T05:03:31;4.60;;;4.40;;
2049;SDS011;8478;49.208;8.806;2023-07-29T05:05:57;4.27;;;4.07;;
2049;SDS011;8478;49.208;8.806;2023-07-29T05:08:24;5.23;;;4.93;;
2049;SDS011;8478;49.208;8.806;2023-07-29T05:10:51;3.90;;;3.70;;
2049;SDS011;8478;49.208;8.806;2023-07-29T05:13:17;4.97;;;4.57;;
2049;SDS011;8478;49.208;8.806;2023-07-29T05:15:44;5.10;;;4.67;;
2049;SDS011;8478;49.208;8.806;2023-07-29T05:18:10;4.60;;;4.40;;
2049;SDS011;8478;49.208;8.806;2023-07-29T05:20:36;4.43;;;4.13;;
2049;SDS011;8478;49.208;8.806;2023-07-29T05:23:01;4.30;;;4.10;;
2049;SDS011;8478;49.208;8.806;2023-07-29T05:25:28;4.33;;;4.13;;
2049;SDS011;8478;49.208;8.806;2023-07-29T05:27:54;4.30;;;4.00;;
2049;SDS011;8478;49.208;8.806;2023-07-29T05:30:19;4.47;;;4.17;;
2049;SDS011;8478;49.208;8.806;2023-07-29T05:32:45;4.23;;;4.03;;
2049;SDS011;8478;49.208;8.806;2023-07-29T05:35:11;4.10;;;3.80;;
2049;SDS011;8478;49.208;8.806;2023-07-29T05:37:37;4.13;;;3.83;;
2049;SDS011;8478;49.208;8.806;2023-07-29T05:40:04;4.30;;;4.10;;
2049;SDS011;8478;49.208;8.806;2023-07-29T05:42:32;4.47;;;4.27;;
2049;SDS011;8478;49.208;8.806;2023-07-29T05:44:57;4.73;;;4.53;;
2049;SDS011;8478;49.208;8.806;2023-07-29T05:47:23;4.67;;;4.27;;
2049;SDS011;8478;49.208;8.806;2023-07-29T05:49:49;4.40;;;4.20;;
2049;SDS011;8478;49.208;8.806;2023-07-29T05:52:15;4.30;;;4.10;;
2049;SDS011;8478;49.208;8.806;2023-07-29T05:54:40;4.03;;;3.80;;
2049;SDS011;8478;49.208;8.806;2023-07-29T05:57:08;4.60;;;4.40;;
2049;SDS011;8478;49.208;8.806;2023-07-29T05:59:37;4.70;;;4.40;;
2049;SDS011;8478;49.208;8.806;2023-07-29T06:02:03;4.30;;;4.10;;
2049;SDS011;8478;49.208;8.806;2023-07-29T06:04:29;4.40;;;4.20;;
2049;SDS011;8478;49.208;8.806;2023-07-29T06:06:55;4.73;;;4.43;;
2049;SDS011;8478;49.208;8.806;2023-07-29T06:09:21;4.80;;;4.50;;
2049;SDS011;8478;49.208;8.806;2023-07-29T06:11:47;4.80;;;4.50;;
2049;SDS011;8478;49.208;8.806;2023-07-29T06:14:13;4.70;;;4.37;;
2049;SDS011;8478;49.208;8.806;2023-07-29T06:16:39;4.40;;;4.10;;
2049;SDS011;8478;49.208;8.806;2023-07-29T06:19:04;4.40;;;4.20;;
2049;SDS011;8478;49.208;8.806;2023-07-29T06:21:30;4.80;;;4.60;;
2049;SDS011;8478;49.208;8.806;2023-07-29T06:23:56;3.47;;;3.20;;
2049;SDS011;8478;49.208;8.806;2023-07-29T06:26:21;4.23;;;4.03;;
2049;SDS011;8478;49.208;8.806;2023-07-29T06:28:47;4.90;;;4.60;;
2049;SDS011;8478;49.208;8.806;2023-07-29T06:31:13;4.20;;;4.00;;
2049;SDS011;8478;49.208;8.806;2023-07-29T06:33:39;5.10;;;4.80;;
2049;SDS011;8478;49.208;8.806;2023-07-29T06:36:04;4.70;;;4.40;;
2049;SDS011;8478;49.208;8.806;2023-07-29T06:38:30;3.00;;;2.80;;
2049;SDS011;8478;49.208;8.806;2023-07-29T06:40:56;5.20;;;4.87;;
2049;SDS011;8478;49.208;8.806;2023-07-29T06:43:22;4.77;;;4.53;;
2049;SDS011;8478;49.208;8.806;2023-07-29T06:45:47;4.87;;;4.60;;
2049;SDS011;8478;49.208;8.806;2023-07-29T06:48:13;3.85;;;3.65;;
2049;SDS011;8478;49.208;8.806;2023-07-29T06:50:39;4.83;;;4.63;;
2049;SDS011;8478;49.208;8.806;2023-07-29T06:53:04;4.27;;;4.07;;
2049;SDS011;8478;49.208;8.806;2023-07-29T06:55:31;4.80;;;4.60;;
2049;SDS011;8478;49.208;8.806;2023-07-29T06:57:56;4.70;;;4.50;;
2049;SDS011;8478;49.208;8.806;2023-07-29T07:00:22;4.40;;;4.20;;
2049;SDS011;8478;49.208;8.806;2023-07-29T07:02:48;5.90;;;5.50;;
2049;SDS011;8478;49.208;8.806;2023-07-29T07:05:13;5.30;;;5.00;;
2049;SDS011;8478;49.208;8.806;2023-07-29T07:07:39;4.53;;;4.33;;
2049;SDS011;8478;49.208;8.806;2023-07-29T07:10:05;8.17;;;4.50;;
2049;SDS011;8478;49.208;8.806;2023-07-29T07:12:31;4.73;;;4.47;;
2049;SDS011;8478;49.208;8.806;2023-07-29T07:14:57;4.37;;;4.17;;
2049;SDS011;8478;49.208;8.806;2023-07-29T07:17:22;4.93;;;4.63;;
2049;SDS011;8478;49.208;8.806;2023-07-29T07:19:48;4.83;;;4.53;;
2049;SDS011;8478;49.208;8.806;2023-07-29T07:22:14;4.73;;;4.33;;
2049;SDS011;8478;49.208;8.806;2023-07-29T07:24:40;4.13;;;3.83;;
2049;SDS011;8478;49.208;8.806;2023-07-29T07:27:05;5.00;;;4.70;;
2049;SDS011;8478;49.208;8.806;2023-07-29T07:29:31;5.00;;;4.80;;
2049;SDS011;8478;49.208;8.806;2023-07-29T07:31:57;5.10;;;4.90;;
2049;SDS011;8478;49.208;8.806;2023-07-29T07:34:23;4.88;;;4.65;;
2049;SDS011;8478;49.208;8.806;2023-07-29T07:36:49;6.77;;;5.17;;
2049;SDS011;8478;49.208;8.806;2023-07-29T07:39:15;5.47;;;5.23;;
2049;SDS011;8478;49.208;8.806;2023-07-29T07:41:41;5.47;;;5.17;;
2049;SDS011;8478;49.208;8.806;2023-07-29T07:44:07;5.33;;;4.83;;
2049;SDS011;8478;49.208;8.806;2023-07-29T07:46:34;5.90;;;5.47;;
2049;SDS011;8478;49.208;8.806;2023-07-29T07:48:59;5.97;;;5.57;;
2049;SDS011;8478;49.208;8.806;2023-07-29T07:51:25;6.13;;;5.67;;
2049;SDS011;8478;49.208;8.806;2023-07-29T07:53:50;5.77;;;5.47;;
2049;SDS011;8478;49.208;8.806;2023-07-29T07:56:16;5.50;;;5.10;;
2049;SDS011;8478;49.208;8.806;2023-07-29T07:58:42;5.43;;;5.13;;
2049;SDS011;8478;49.208;8.806;2023-07-29T08:01:08;5.30;;;5.00;;
2049;SDS011;8478;49.208;8.806;2023-07-29T08:03:37;5.33;;;5.00;;
2049;SDS011;8478;49.208;8.806;2023-07-29T08:06:02;5.40;;;5.00;;
2049;SDS011;8478;49.208;8.806;2023-07-29T08:08:29;6.07;;;5.60;;
2049;SDS011;8478;49.208;8.806;2023-07-29T08:10:56;5.77;;;5.27;;
2049;SDS011;8478;49.208;8.806;2023-07-29T08:13:23;5.80;;;5.50;;
2049;SDS011;8478;49.208;8.806;2023-07-29T08:15:51;6.23;;;5.63;;
2049;SDS011;8478;49.208;8.806;2023-07-29T08:18:18;6.10;;;5.80;;
2049;SDS011;8478;49.208;8.806;2023-07-29T08:20:53;6.47;;;5.97;;
2049;SDS011;8478;49.208;8.806;2023-07-29T08:23:20;5.57;;;5.28;;
2049;SDS011;8478;49.208;8.806;2023-07-29T08:25:50;5.63;;;5.33;;
2049;SDS011;8478;49.208;8.806;2023-07-29T08:28:17;5.07;;;4.87;;
2049;SDS011;8478;49.208;8.806;2023-07-29T08:30:43;5.63;;;5.30;;
2049;SDS011;8478;49.208;8.806;2023-07-29T08:33:09;5.63;;;5.33;;
2049;SDS011;8478;49.208;8.806;2023-07-29T08:35:34;6.00;;;5.60;;
2049;SDS011;8478;49.208;8.806;2023-07-29T08:38:00;4.85;;;4.55;;
2049;SDS011;8478;49.208;8.806;2023-07-29T08:40:27;5.40;;;5.10;;
2049;SDS011;8478;49.208;8.806;2023-07-29T08:42:55;5.47;;;5.17;;
2049;SDS011;8478;49.208;8.806;2023-07-29T08:45:23;5.53;;;5.23;;
2049;SDS011;8478;49.208;8.806;2023-07-29T08:47:49;5.93;;;5.63;;
2049;SDS011;8478;49.208;8.806;2023-07-29T08:50:20;5.97;;;5.60;;
2049;SDS011;8478;49.208;8.806;2023-07-29T08:52:46;5.50;;;5.20;;
2049;SDS011;8478;49.208;8.806;2023-07-29T08:55:14;5.10;;;4.83;;
2049;SDS011;8478;49.208;8.806;2023-07-29T08:57:40;5.80;;;5.50;;
2049;SDS011;8478;49.208;8.806;2023-07-29T09:00:06;6.03;;;5.73;;
2049;SDS011;8478;49.208;8.806;2023-07-29T09:02:32;6.17;;;5.87;;
2049;SDS011;8478;49.208;8.806;2023-07-29T09:04:58;5.77;;;5.27;;
2049;SDS011;8478;49.208;8.806;2023-07-29T09:07:23;5.70;;;5.30;;
2049;SDS011;8478;49.208;8.806;2023-07-29T09:09:51;5.37;;;5.17;;
2049;SDS011;8478;49.208;8.806;2023-07-29T09:12:16;5.73;;;5.33;;
2049;SDS011;8478;49.208;8.806;2023-07-29T09:14:42;5.90;;;5.50;;
2049;SDS011;8478;49.208;8.806;2023-07-29T09:17:08;5.60;;;5.30;;
2049;SDS011;8478;49.208;8.806;2023-07-29T09:19:34;5.47;;;5.17;;
2049;SDS011;8478;49.208;8.806;2023-07-29T09:22:00;4.90;;;4.70;;
2049;SDS011;8478;49.208;8.806;2023-07-29T09:24:26;5.60;;;5.30;;
2049;SDS011;8478;49.208;8.806;2023-07-29T09:26:54;5.57;;;5.20;;
2049;SDS011;8478;49.208;8.806;2023-07-29T09:29:23;6.40;;;5.90;;
2049;SDS011;8478;49.208;8.806;2023-07-29T09:31:52;5.87;;;5.37;;
2049;SDS011;8478;49.208;8.806;2023-07-29T09:34:18;5.90;;;5.50;;
2049;SDS011;8478;49.208;8.806;2023-07-29T09:36:43;6.17;;;5.77;;
2049;SDS011;8478;49.208;8.806;2023-07-29T09:39:12;6.27;;;5.87;;
2049;SDS011;8478;49.208;8.806;2023-07-29T09:41:38;5.63;;;5.33;;
2049;SDS011;8478;49.208;8.806;2023-07-29T09:44:04;5.90;;;5.50;;
2049;SDS011;8478;49.208;8.806;2023-07-29T09:46:34;6.17;;;5.70;;
2049;SDS011;8478;49.208;8.806;2023-07-29T09:49:02;5.90;;;5.60;;
2049;SDS011;8478;49.208;8.806;2023-07-29T09:51:28;5.70;;;5.40;;
2049;SDS011;8478;49.208;8.806;2023-07-29T09:53:54;5.77;;;5.47;;
2049;SDS011;8478;49.208;8.806;2023-07-29T09:56:24;5.63;;;5.33;;
2049;SDS011;8478;49.208;8.806;2023-07-29T09:58:51;6.27;;;5.87;;
2049;SDS011;8478;49.208;8.806;2023-07-29T10:01:17;6.03;;;5.73;;
2049;SDS011;8478;49.208;8.806;2023-07-29T10:03:44;5.60;;;5.30;;
2049;SDS011;8478;49.208;8.806;2023-07-29T10:06:10;5.90;;;5.60;;
2049;SDS011;8478;49.208;8.806;2023-07-29T10:08:36;5.93;;;5.63;;
2049;SDS011;8478;49.208;8.806;2023-07-29T10:11:05;6.20;;;5.90;;
2049;SDS011;8478;49.208;8.806;2023-07-29T10:13:35;5.33;;;5.03;;
2049;SDS011;8478;49.208;8.806;2023-07-29T10:16:01;4.95;;;4.65;;
2049;SDS011;8478;49.208;8.806;2023-07-29T10:18:28;5.70;;;5.50;;
2049;SDS011;8478;49.208;8.806;2023-07-29T10:20:56;5.77;;;5.47;;
2049;SDS011;8478;49.208;8.806;2023-07-29T10:23:23;6.60;;;6.17;;
2049;SDS011;8478;49.208;8.806;2023-07-29T10:26:04;6.67;;;6.27;;
2049;SDS011;8478;49.208;8.806;2023-07-29T10:28:32;4.88;;;4.57;;
2049;SDS011;8478;49.208;8.806;2023-07-29T10:30:58;6.20;;;5.70;;
2049;SDS011;8478;49.208;8.806;2023-07-29T10:33:24;6.17;;;5.87;;
2049;SDS011;8478;49.208;8.806;2023-07-29T10:35:51;6.53;;;6.13;;
2049;SDS011;8478;49.208;8.806;2023-07-29T10:38:18;6.63;;;6.23;;
2049;SDS011;8478;49.208;8.806;2023-07-29T10:40:47;5.80;;;5.50;;
2049;SDS011;8478;49.208;8.806;2023-07-29T10:43:20;6.83;;;6.43;;
2049;SDS011;8478;49.208;8.806;2023-07-29T10:45:56;6.37;;;5.97;;
2049;SDS011;8478;49.208;8.806;2023-07-29T10:53:57;7.03;;;6.63;;
2049;SDS011;8478;49.208;8.806;2023-07-29T10:56:28;6.43;;;6.03;;
2049;SDS011;8478;49.208;8.806;2023-07-29T10:58:59;6.43;;;6.13;;
2049;SDS011;8478;49.208;8.806;2023-07-29T11:01:56;7.00;;;6.60;;
2049;SDS011;8478;49.208;8.806;2023-07-29T11:04:24;6.97;;;6.43;;
2049;SDS011;8478;49.208;8.806;2023-07-29T11:09:51;6.60;;;6.20;;
2049;SDS011;8478;49.208;8.806;2023-07-29T11:17:57;5.20;;;4.90;;
2049;SDS011;8478;49.208;8.806;2023-07-29T11:20:25;7.40;;;6.90;;
2049;SDS011;8478;49.208;8.806;2023-07-29T11:22:52;6.27;;;5.97;;
2049;SDS011;8478;49.208;8.806;2023-07-29T11:25:18;6.00;;;5.70;;
2049;SDS011;8478;49.208;8.806;2023-07-29T11:27:44;6.73;;;6.30;;
2049;SDS011;8478;49.208;8.806;2023-07-29T11:30:11;6.50;;;6.00;;
2049;SDS011;8478;49.208;8.806;2023-07-29T11:32:38;7.47;;;6.97;;
2049;SDS011;8478;49.208;8.806;2023-07-29T11:35:06;6.20;;;5.90;;
2049;SDS011;8478;49.208;8.806;2023-07-29T11:37:35;6.47;;;6.17;;
2049;SDS011;8478;49.208;8.806;2023-07-29T11:40:02;6.70;;;6.40;;
2049;SDS011;8478;49.208;8.806;2023-07-29T11:42:31;6.97;;;6.57;;
2049;SDS011;8478;49.208;8.806;2023-07-29T11:45:01;6.80;;;6.33;;
2049;SDS011;8478;49.208;8.806;2023-07-29T11:47:28;6.90;;;6.50;;
2049;SDS011;8478;49.208;8.806;2023-07-29T11:49:57;6.83;;;6.53;;
2049;SDS011;8478;49.208;8.806;2023-07-29T11:52:24;5.63;;;5.33;;
2049;SDS011;8478;49.208;8.806;2023-07-29T11:54:49;6.77;;;6.40;;
2049;SDS011;8478;49.208;8.806;2023-07-29T11:57:16;6.13;;;5.83;;
2049;SDS011;8478;49.208;8.806;2023-07-29T11:59:43;6.13;;;5.83;;
2049;SDS011;8478;49.208;8.806;2023-07-29T12:02:13;7.17;;;6.77;;
2049;SDS011;8478;49.208;8.806;2023-07-29T12:04:42;7.00;;;6.70;;
2049;SDS011;8478;49.208;8.806;2023-07-29T12:07:09;6.20;;;5.90;;
2049;SDS011;8478;49.208;8.806;2023-07-29T12:09:35;6.23;;;5.93;;
2049;SDS011;8478;49.208;8.806;2023-07-29T12:12:02;6.40;;;6.10;;
2049;SDS011;8478;49.208;8.806;2023-07-29T12:14:29;6.50;;;6.20;;
2049;SDS011;8478;49.208;8.806;2023-07-29T12:16:54;7.07;;;6.77;;
2049;SDS011;8478;49.208;8.806;2023-07-29T12:19:20;6.70;;;6.30;;
2049;SDS011;8478;49.208;8.806;2023-07-29T12:21:47;5.15;;;4.80;;
2049;SDS011;8478;49.208;8.806;2023-07-29T12:24:14;6.70;;;6.37;;
2049;SDS011;8478;49.208;8.806;2023-07-29T12:26:40;5.23;;;5.03;;
2049;SDS011;8478;49.208;8.806;2023-07-29T12:29:16;6.90;;;6.50;;
2049;SDS011;8478;49.208;8.806;2023-07-29T12:31:46;6.13;;;5.82;;
2049;SDS011;8478;49.208;8.806;2023-07-29T12:34:18;7.00;;;6.70;;
2049;SDS011;8478;49.208;8.806;2023-07-29T12:36:48;7.13;;;6.70;;
2049;SDS011;8478;49.208;8.806;2023-07-29T12:39:19;6.13;;;5.83;;
2049;SDS011;8478;49.208;8.806;2023-07-29T12:41:55;6.40;;;6.00;;
2049;SDS011;8478;49.208;8.806;2023-07-29T12:44:23;6.13;;;5.80;;
2049;SDS011;8478;49.208;8.806;2023-07-29T12:46:49;6.20;;;5.90;;
2049;SDS011;8478;49.208;8.806;2023-07-29T12:49:15;6.63;;;6.33;;
2049;SDS011;8478;49.208;8.806;2023-07-29T12:51:41;6.40;;;6.10;;
2049;SDS011;8478;49.208;8.806;2023-07-29T12:54:06;6.60;;;6.30;;
2049;SDS011;8478;49.208;8.806;2023-07-29T12:56:32;7.23;;;6.77;;
2049;SDS011;8478;49.208;8.806;2023-07-29T12:58:58;6.90;;;6.20;;
2049;SDS011;8478;49.208;8.806;2023-07-29T13:01:25;6.03;;;5.73;;
2049;SDS011;8478;49.208;8.806;2023-07-29T13:03:51;6.40;;;6.10;;
2049;SDS011;8478;49.208;8.806;2023-07-29T13:06:17;6.63;;;6.23;;
2049;SDS011;8478;49.208;8.806;2023-07-29T13:08:43;5.90;;;5.60;;
2049;SDS011;8478;49.208;8.806;2023-07-29T13:11:09;6.67;;;6.37;;
2049;SDS011;8478;49.208;8.806;2023-07-29T13:13:35;6.10;;;5.80;;
2049;SDS011;8478;49.208;8.806;2023-07-29T13:16:01;6.23;;;5.80;;
2049;SDS011;8478;49.208;8.806;2023-07-29T13:18:26;6.63;;;6.33;;
2049;SDS011;8478;49.208;8.806;2023-07-29T13:20:52;6.90;;;6.40;;
2049;SDS011;8478;49.208;8.806;2023-07-29T13:23:18;6.30;;;6.00;;
2049;SDS011;8478;49.208;8.806;2023-07-29T13:25:44;7.33;;;6.87;;
2049;SDS011;8478;49.208;8.806;2023-07-29T13:28:10;6.40;;;6.10;;
2049;SDS011;8478;49.208;8.806;2023-07-29T13:30:38;6.73;;;6.23;;
2049;SDS011;8478;49.208;8.806;2023-07-29T13:33:07;6.80;;;6.40;;
2049;SDS011;8478;49.208;8.806;2023-07-29T13:35:33;6.60;;;6.30;;
2049;SDS011;8478;49.208;8.806;2023-07-29T13:37:59;6.47;;;6.10;;
2049;SDS011;8478;49.208;8.806;2023-07-29T13:40:26;6.60;;;6.20;;
2049;SDS011;8478;49.208;8.806;2023-07-29T13:42:51;7.20;;;6.80;;
2049;SDS011;8478;49.208;8.806;2023-07-29T13:45:17;7.00;;;6.70;;
2049;SDS011;8478;49.208;8.806;2023-07-29T13:47:43;6.93;;;6.60;;
2049;SDS011;8478;49.208;8.806;2023-07-29T13:50:09;7.03;;;6.50;;
2049;SDS011;8478;49.208;8.806;2023-07-29T13:52:36;7.17;;;6.80;;
2049;SDS011;8478;49.208;8.806;2023-07-29T13:55:02;6.87;;;6.37;;
2049;SDS011;8478;49.208;8.806;2023-07-29T13:57:29;6.90;;;6.50;;
2049;SDS011;8478;49.208;8.806;2023-07-29T13:59:54;6.43;;;6.13;;
2049;SDS011;8478;49.208;8.806;2023-07-29T14:02:20;5.32;;;5.03;;
2049;SDS011;8478;49.208;8.806;2023-07-29T14:04:46;6.60;;;6.20;;
2049;SDS011;8478;49.208;8.806;2023-07-29T14:07:11;7.00;;;6.70;;
2049;SDS011;8478;49.208;8.806;2023-07-29T14:09:37;6.23;;;5.93;;
2049;SDS011;8478;49.208;8.806;2023-07-29T14:12:03;7.37;;;6.80;;
2049;SDS011;8478;49.208;8.806;2023-07-29T14:14:30;6.27;;;5.97;;
2049;SDS011;8478;49.208;8.806;2023-07-29T14:16:56;7.00;;;6.60;;
2049;SDS011;8478;49.208;8.806;2023-07-29T14:19:22;7.17;;;6.87;;
2049;SDS011;8478;49.208;8.806;2023-07-29T14:21:48;7.37;;;6.83;;
2049;SDS011;8478;49.208;8.806;2023-07-29T14:24:14;7.10;;;6.80;;
2049;SDS011;8478;49.208;8.806;2023-07-29T14:26:40;5.28;;;4.88;;
2049;SDS011;8478;49.208;8.806;2023-07-29T14:29:06;6.60;;;6.10;;
2049;SDS011;8478;49.208;8.806;2023-07-29T14:31:32;7.00;;;6.60;;
2049;SDS011;8478;49.208;8.806;2023-07-29T14:33:57;7.23;;;6.83;;
2049;SDS011;8478;49.208;8.806;2023-07-29T14:36:24;7.33;;;6.83;;
2049;SDS011;8478;49.208;8.806;2023-07-29T14:38:50;5.83;;;5.53;;
2049;SDS011;8478;49.208;8.806;2023-07-29T14:41:16;6.37;;;6.00;;
2049;SDS011;8478;49.208;8.806;2023-07-29T14:43:41;6.70;;;6.40;;
2049;SDS011;8478;49.208;8.806;2023-07-29T14:46:07;6.63;;;6.33;;
2049;SDS011;8478;49.208;8.806;2023-07-29T14:48:33;6.43;;;6.13;;
2049;SDS011;8478;49.208;8.806;2023-07-29T14:50:58;7.13;;;6.73;;
2049;SDS011;8478;49.208;8.806;2023-07-29T14:53:24;6.63;;;6.23;;
2049;SDS011;8478;49.208;8.806;2023-07-29T14:55:50;6.47;;;6.10;;
2049;SDS011;8478;49.208;8.806;2023-07-29T14:58:16;6.70;;;6.37;;
2049;SDS011;8478;49.208;8.806;2023-07-29T15:00:42;6.80;;;6.50;;
2049;SDS011;8478;49.208;8.806;2023-07-29T15:03:07;6.90;;;6.40;;
2049;SDS011;8478;49.208;8.806;2023-07-29T15:05:33;6.77;;;6.40;;
2049;SDS011;8478;49.208;8.806;2023-07-29T15:07:59;5.90;;;5.50;;
2049;SDS011;8478;49.208;8.806;2023-07-29T15:10:24;6.27;;;5.97;;
2049;SDS011;8478;49.208;8.806;2023-07-29T15:12:50;6.57;;;6.27;;
2049;SDS011;8478;49.208;8.806;2023-07-29T15:15:16;6.40;;;6.10;;
2049;SDS011;8478;49.208;8.806;2023-07-29T15:17:42;4.72;;;4.43;;
2049;SDS011;8478;49.208;8.806;2023-07-29T15:20:08;6.83;;;6.43;;
2049;SDS011;8478;49.208;8.806;2023-07-29T15:22:34;6.47;;;6.17;;
2049;SDS011;8478;49.208;8.806;2023-07-29T15:25:00;6.27;;;5.97;;
2049;SDS011;8478;49.208;8.806;2023-07-29T15:27:29;6.00;;;5.70;;
2049;SDS011;8478;49.208;8.806;2023-07-29T15:29:55;6.20;;;5.90;;